sensor_id;sensor_type;location;lat;lon;timestamp;P1;durP1;ratioP1;P2;durP2;ratioP2
21352;SDS011;10834;52.268;6.770;2023-06-19T00:00:32;8.90;;;8.07;;
21352;SDS011;10834;52.268;6.770;2023-06-19T00:03:18;8.05;;;7.25;;
21352;SDS011;10834;52.268;6.770;2023-06-19T00:06:05;9.25;;;7.88;;
21352;SDS011;10834;52.268;6.770;2023-06-19T00:08:51;15.40;;;8.23;;
21352;SDS011;10834;52.268;6.770;2023-06-19T00:11:37;8.68;;;7.70;;
21352;SDS011;10834;52.268;6.770;2023-06-19T00:14:23;9.98;;;8.25;;
21352;SDS011;10834;52.268;6.770;2023-06-19T00:17:09;9.10;;;8.10;;
21352;SDS011;10834;52.268;6.770;2023-06-19T00:19:55;9.75;;;8.02;;
21352;SDS011;10834;52.268;6.770;2023-06-19T00:22:41;13.63;;;9.98;;
21352;SDS011;10834;52.268;6.770;2023-06-19T00:25:27;12.68;;;8.27;;
21352;SDS011;10834;52.268;6.770;2023-06-19T00:28:13;9.55;;;7.80;;
21352;SDS011;10834;52.268;6.770;2023-06-19T00:31:00;8.63;;;7.40;;
21352;SDS011;10834;52.268;6.770;2023-06-19T00:33:46;8.55;;;7.18;;
21352;SDS011;10834;52.268;6.770;2023-06-19T00:36:35;9.70;;;7.47;;
21352;SDS011;10834;52.268;6.770;2023-06-19T00:39:25;8.55;;;7.72;;
21352;SDS011;10834;52.268;6.770;2023-06-19T00:42:12;9.32;;;7.65;;
21352;SDS011;10834;52.268;6.770;2023-06-19T00:44:59;10.02;;;7.57;;
21352;SDS011;10834;52.268;6.770;2023-06-19T00:47:45;8.25;;;7.40;;
21352;SDS011;10834;52.268;6.770;2023-06-19T00:50:31;9.20;;;7.38;;
21352;SDS011;10834;52.268;6.770;2023-06-19T00:53:17;8.35;;;7.65;;
21352;SDS011;10834;52.268;6.770;2023-06-19T00:56:05;8.85;;;7.40;;
21352;SDS011;10834;52.268;6.770;2023-06-19T00:58:51;13.05;;;8.40;;
21352;SDS011;10834;52.268;6.770;2023-06-19T01:01:39;10.45;;;7.68;;
21352;SDS011;10834;52.268;6.770;2023-06-19T01:04:25;7.60;;;6.88;;
21352;SDS011;10834;52.268;6.770;2023-06-19T01:07:11;8.63;;;7.63;;
21352;SDS011;10834;52.268;6.770;2023-06-19T01:10:02;7.80;;;7.10;;
21352;SDS011;10834;52.268;6.770;2023-06-19T01:13:34;8.95;;;8.15;;
21352;SDS011;10834;52.268;6.770;2023-06-19T01:16:24;7.70;;;7.00;;
21352;SDS011;10834;52.268;6.770;2023-06-19T01:19:10;8.90;;;7.80;;
21352;SDS011;10834;52.268;6.770;2023-06-19T01:22:06;7.53;;;6.82;;
21352;SDS011;10834;52.268;6.770;2023-06-19T01:24:52;7.55;;;6.85;;
21352;SDS011;10834;52.268;6.770;2023-06-19T01:27:39;7.72;;;6.15;;
21352;SDS011;10834;52.268;6.770;2023-06-19T01:30:26;7.55;;;6.85;;
21352;SDS011;10834;52.268;6.770;2023-06-19T01:33:15;6.80;;;6.13;;
21352;SDS011;10834;52.268;6.770;2023-06-19T01:36:07;7.85;;;6.85;;
21352;SDS011;10834;52.268;6.770;2023-06-19T01:38:55;7.80;;;6.50;;
21352;SDS011;10834;52.268;6.770;2023-06-19T01:41:43;6.22;;;5.68;;
21352;SDS011;10834;52.268;6.770;2023-06-19T01:44:31;6.85;;;6.25;;
21352;SDS011;10834;52.268;6.770;2023-06-19T01:47:18;7.07;;;6.35;;
21352;SDS011;10834;52.268;6.770;2023-06-19T01:50:05;8.02;;;6.32;;
21352;SDS011;10834;52.268;6.770;2023-06-19T01:52:52;6.85;;;6.25;;
21352;SDS011;10834;52.268;6.770;2023-06-19T01:55:39;6.30;;;5.70;;
21352;SDS011;10834;52.268;6.770;2023-06-19T01:58:25;6.53;;;5.93;;
21352;SDS011;10834;52.268;6.770;2023-06-19T02:01:11;7.03;;;5.53;;
21352;SDS011;10834;52.268;6.770;2023-06-19T02:03:57;5.82;;;5.20;;
21352;SDS011;10834;52.268;6.770;2023-06-19T02:06:43;7.10;;;5.57;;
21352;SDS011;10834;52.268;6.770;2023-06-19T02:09:29;6.28;;;5.68;;
21352;SDS011;10834;52.268;6.770;2023-06-19T02:12:15;6.82;;;6.03;;
21352;SDS011;10834;52.268;6.770;2023-06-19T02:15:01;6.18;;;5.60;;
21352;SDS011;10834;52.268;6.770;2023-06-19T02:17:47;6.75;;;5.97;;
21352;SDS011;10834;52.268;6.770;2023-06-19T02:20:33;7.88;;;5.90;;
21352;SDS011;10834;52.268;6.770;2023-06-19T02:23:19;6.70;;;5.40;;
21352;SDS011;10834;52.268;6.770;2023-06-19T02:26:05;8.00;;;6.40;;
21352;SDS011;10834;52.268;6.770;2023-06-19T02:28:51;6.93;;;6.00;;
21352;SDS011;10834;52.268;6.770;2023-06-19T02:31:37;6.97;;;5.30;;
21352;SDS011;10834;52.268;6.770;2023-06-19T02:34:24;5.57;;;5.07;;
21352;SDS011;10834;52.268;6.770;2023-06-19T02:37:10;5.93;;;5.40;;
21352;SDS011;10834;52.268;6.770;2023-06-19T02:39:56;7.85;;;4.82;;
21352;SDS011;10834;52.268;6.770;2023-06-19T02:42:43;6.22;;;5.63;;
21352;SDS011;10834;52.268;6.770;2023-06-19T02:45:29;6.70;;;5.85;;
21352;SDS011;10834;52.268;6.770;2023-06-19T02:48:15;6.53;;;5.85;;
21352;SDS011;10834;52.268;6.770;2023-06-19T02:51:02;6.55;;;5.95;;
21352;SDS011;10834;52.268;6.770;2023-06-19T02:53:48;5.78;;;5.28;;
21352;SDS011;10834;52.268;6.770;2023-06-19T02:56:34;5.70;;;5.10;;
21352;SDS011;10834;52.268;6.770;2023-06-19T02:59:20;6.20;;;5.60;;
21352;SDS011;10834;52.268;6.770;2023-06-19T03:02:06;7.03;;;5.32;;
21352;SDS011;10834;52.268;6.770;2023-06-19T03:04:52;8.32;;;5.85;;
21352;SDS011;10834;52.268;6.770;2023-06-19T03:07:38;7.97;;;5.47;;
21352;SDS011;10834;52.268;6.770;2023-06-19T03:10:24;6.25;;;5.65;;
21352;SDS011;10834;52.268;6.770;2023-06-19T03:13:10;6.10;;;5.35;;
21352;SDS011;10834;52.268;6.770;2023-06-19T03:15:57;5.63;;;5.10;;
21352;SDS011;10834;52.268;6.770;2023-06-19T03:18:44;6.65;;;6.05;;
21352;SDS011;10834;52.268;6.770;2023-06-19T03:21:30;6.07;;;5.20;;
21352;SDS011;10834;52.268;6.770;2023-06-19T03:24:16;5.63;;;5.10;;
21352;SDS011;10834;52.268;6.770;2023-06-19T03:27:03;7.00;;;5.05;;
21352;SDS011;10834;52.268;6.770;2023-06-19T03:29:49;6.80;;;5.68;;
21352;SDS011;10834;52.268;6.770;2023-06-19T03:32:35;7.97;;;5.78;;
21352;SDS011;10834;52.268;6.770;2023-06-19T03:35:21;6.53;;;5.85;;
21352;SDS011;10834;52.268;6.770;2023-06-19T03:38:07;6.15;;;5.55;;
21352;SDS011;10834;52.268;6.770;2023-06-19T03:40:53;7.18;;;5.63;;
21352;SDS011;10834;52.268;6.770;2023-06-19T03:43:39;6.95;;;6.22;;
21352;SDS011;10834;52.268;6.770;2023-06-19T03:46:25;6.00;;;5.47;;
21352;SDS011;10834;52.268;6.770;2023-06-19T03:49:11;5.82;;;5.13;;
21352;SDS011;10834;52.268;6.770;2023-06-19T03:51:57;7.50;;;5.00;;
21352;SDS011;10834;52.268;6.770;2023-06-19T03:54:43;5.68;;;5.07;;
21352;SDS011;10834;52.268;6.770;2023-06-19T03:57:29;6.20;;;5.60;;
21352;SDS011;10834;52.268;6.770;2023-06-19T04:00:16;5.95;;;5.35;;
21352;SDS011;10834;52.268;6.770;2023-06-19T04:03:03;6.68;;;5.72;;
21352;SDS011;10834;52.268;6.770;2023-06-19T04:05:49;7.80;;;5.35;;
21352;SDS011;10834;52.268;6.770;2023-06-19T04:08:35;6.53;;;5.60;;
21352;SDS011;10834;52.268;6.770;2023-06-19T04:11:21;8.68;;;5.68;;
21352;SDS011;10834;52.268;6.770;2023-06-19T04:14:08;6.20;;;5.38;;
21352;SDS011;10834;52.268;6.770;2023-06-19T04:16:54;9.18;;;5.35;;
21352;SDS011;10834;52.268;6.770;2023-06-19T04:19:40;7.88;;;5.47;;
21352;SDS011;10834;52.268;6.770;2023-06-19T04:22:26;7.60;;;6.45;;
21352;SDS011;10834;52.268;6.770;2023-06-19T04:25:12;7.90;;;5.53;;
21352;SDS011;10834;52.268;6.770;2023-06-19T04:27:58;8.52;;;5.60;;
21352;SDS011;10834;52.268;6.770;2023-06-19T04:30:44;6.53;;;5.82;;
21352;SDS011;10834;52.268;6.770;2023-06-19T04:33:30;8.30;;;5.55;;
21352;SDS011;10834;52.268;6.770;2023-06-19T04:36:16;7.30;;;5.70;;
21352;SDS011;10834;52.268;6.770;2023-06-19T04:39:02;7.53;;;5.53;;
21352;SDS011;10834;52.268;6.770;2023-06-19T04:41:48;5.68;;;5.03;;
21352;SDS011;10834;52.268;6.770;2023-06-19T04:44:34;6.35;;;4.90;;
21352;SDS011;10834;52.268;6.770;2023-06-19T04:47:21;4.45;;;4.03;;
21352;SDS011;10834;52.268;6.770;2023-06-19T04:50:08;4.18;;;3.78;;
21352;SDS011;10834;52.268;6.770;2023-06-19T04:52:54;7.05;;;4.38;;
21352;SDS011;10834;52.268;6.770;2023-06-19T04:55:40;5.00;;;4.00;;
21352;SDS011;10834;52.268;6.770;2023-06-19T04:58:27;4.63;;;4.00;;
21352;SDS011;10834;52.268;6.770;2023-06-19T05:01:14;5.57;;;3.30;;
21352;SDS011;10834;52.268;6.770;2023-06-19T05:04:01;4.20;;;3.72;;
21352;SDS011;10834;52.268;6.770;2023-06-19T05:06:47;6.10;;;4.05;;
21352;SDS011;10834;52.268;6.770;2023-06-19T05:09:33;4.45;;;4.05;;
21352;SDS011;10834;52.268;6.770;2023-06-19T05:12:19;4.30;;;3.90;;
21352;SDS011;10834;52.268;6.770;2023-06-19T05:15:05;4.63;;;4.03;;
21352;SDS011;10834;52.268;6.770;2023-06-19T05:17:52;5.15;;;4.53;;
21352;SDS011;10834;52.268;6.770;2023-06-19T05:20:38;6.20;;;4.13;;
21352;SDS011;10834;52.268;6.770;2023-06-19T05:23:24;4.40;;;3.35;;
21352;SDS011;10834;52.268;6.770;2023-06-19T05:26:10;4.70;;;3.72;;
21352;SDS011;10834;52.268;6.770;2023-06-19T05:28:56;5.47;;;3.90;;
21352;SDS011;10834;52.268;6.770;2023-06-19T05:31:42;4.25;;;3.50;;
21352;SDS011;10834;52.268;6.770;2023-06-19T05:34:28;4.38;;;3.65;;
21352;SDS011;10834;52.268;6.770;2023-06-19T05:37:15;4.40;;;3.53;;
21352;SDS011;10834;52.268;6.770;2023-06-19T05:40:02;5.20;;;3.72;;
21352;SDS011;10834;52.268;6.770;2023-06-19T05:42:49;4.13;;;3.72;;
21352;SDS011;10834;52.268;6.770;2023-06-19T05:45:35;3.78;;;3.45;;
21352;SDS011;10834;52.268;6.770;2023-06-19T05:48:21;5.00;;;3.72;;
21352;SDS011;10834;52.268;6.770;2023-06-19T05:51:07;6.07;;;3.83;;
21352;SDS011;10834;52.268;6.770;2023-06-19T05:53:53;3.90;;;3.60;;
21352;SDS011;10834;52.268;6.770;2023-06-19T05:56:40;4.13;;;3.83;;
21352;SDS011;10834;52.268;6.770;2023-06-19T05:59:26;4.95;;;3.90;;
21352;SDS011;10834;52.268;6.770;2023-06-19T06:02:12;4.97;;;3.65;;
21352;SDS011;10834;52.268;6.770;2023-06-19T06:04:58;7.18;;;4.28;;
21352;SDS011;10834;52.268;6.770;2023-06-19T06:07:44;5.97;;;4.20;;
21352;SDS011;10834;52.268;6.770;2023-06-19T06:10:31;7.05;;;3.85;;
21352;SDS011;10834;52.268;6.770;2023-06-19T06:13:17;6.80;;;4.07;;
21352;SDS011;10834;52.268;6.770;2023-06-19T06:16:03;5.40;;;3.78;;
21352;SDS011;10834;52.268;6.770;2023-06-19T06:18:49;6.88;;;3.75;;
21352;SDS011;10834;52.268;6.770;2023-06-19T06:21:35;4.38;;;3.35;;
21352;SDS011;10834;52.268;6.770;2023-06-19T06:24:21;4.40;;;3.70;;
21352;SDS011;10834;52.268;6.770;2023-06-19T06:27:07;5.50;;;4.25;;
21352;SDS011;10834;52.268;6.770;2023-06-19T06:29:53;4.60;;;4.20;;
21352;SDS011;10834;52.268;6.770;2023-06-19T06:32:39;4.18;;;3.60;;
21352;SDS011;10834;52.268;6.770;2023-06-19T06:35:25;5.00;;;3.90;;
21352;SDS011;10834;52.268;6.770;2023-06-19T06:38:11;9.35;;;4.28;;
21352;SDS011;10834;52.268;6.770;2023-06-19T06:40:57;6.85;;;4.78;;
21352;SDS011;10834;52.268;6.770;2023-06-19T06:43:43;4.88;;;3.80;;
21352;SDS011;10834;52.268;6.770;2023-06-19T06:46:29;5.75;;;5.00;;
21352;SDS011;10834;52.268;6.770;2023-06-19T06:49:15;6.43;;;5.15;;
21352;SDS011;10834;52.268;6.770;2023-06-19T06:52:05;7.20;;;4.63;;
21352;SDS011;10834;52.268;6.770;2023-06-19T06:54:52;5.03;;;4.35;;
21352;SDS011;10834;52.268;6.770;2023-06-19T06:57:38;5.25;;;4.22;;
21352;SDS011;10834;52.268;6.770;2023-06-19T07:00:24;5.00;;;4.50;;
21352;SDS011;10834;52.268;6.770;2023-06-19T07:03:10;5.80;;;5.20;;
21352;SDS011;10834;52.268;6.770;2023-06-19T07:05:57;5.10;;;4.70;;
21352;SDS011;10834;52.268;6.770;2023-06-19T07:08:43;5.20;;;4.70;;
21352;SDS011;10834;52.268;6.770;2023-06-19T07:11:32;5.50;;;4.70;;
21352;SDS011;10834;52.268;6.770;2023-06-19T07:14:18;4.50;;;4.10;;
21352;SDS011;10834;52.268;6.770;2023-06-19T07:17:04;4.78;;;4.38;;
21352;SDS011;10834;52.268;6.770;2023-06-19T07:19:52;5.68;;;5.18;;
21352;SDS011;10834;52.268;6.770;2023-06-19T07:22:38;5.18;;;4.68;;
21352;SDS011;10834;52.268;6.770;2023-06-19T07:25:25;4.88;;;4.05;;
21352;SDS011;10834;52.268;6.770;2023-06-19T07:28:11;5.88;;;4.53;;
21352;SDS011;10834;52.268;6.770;2023-06-19T07:30:57;5.00;;;4.38;;
21352;SDS011;10834;52.268;6.770;2023-06-19T07:33:43;7.20;;;5.15;;
21352;SDS011;10834;52.268;6.770;2023-06-19T07:36:29;7.15;;;4.30;;
21352;SDS011;10834;52.268;6.770;2023-06-19T07:39:15;7.32;;;5.18;;
21352;SDS011;10834;52.268;6.770;2023-06-19T07:42:01;6.68;;;5.10;;
21352;SDS011;10834;52.268;6.770;2023-06-19T07:44:47;5.53;;;5.03;;
21352;SDS011;10834;52.268;6.770;2023-06-19T07:47:33;9.95;;;5.53;;
21352;SDS011;10834;52.268;6.770;2023-06-19T07:50:19;7.20;;;5.25;;
21352;SDS011;10834;52.268;6.770;2023-06-19T07:53:05;6.00;;;5.40;;
21352;SDS011;10834;52.268;6.770;2023-06-19T07:55:51;6.18;;;5.60;;
21352;SDS011;10834;52.268;6.770;2023-06-19T07:58:37;7.68;;;6.80;;
21352;SDS011;10834;52.268;6.770;2023-06-19T08:01:24;9.35;;;6.30;;
21352;SDS011;10834;52.268;6.770;2023-06-19T08:04:10;8.98;;;6.53;;
21352;SDS011;10834;52.268;6.770;2023-06-19T08:06:56;7.45;;;6.38;;
21352;SDS011;10834;52.268;6.770;2023-06-19T08:09:42;8.23;;;6.90;;
21352;SDS011;10834;52.268;6.770;2023-06-19T08:12:28;7.38;;;6.15;;
21352;SDS011;10834;52.268;6.770;2023-06-19T08:15:14;8.65;;;6.25;;
21352;SDS011;10834;52.268;6.770;2023-06-19T08:18:00;9.77;;;6.55;;
21352;SDS011;10834;52.268;6.770;2023-06-19T08:20:46;7.45;;;6.75;;
21352;SDS011;10834;52.268;6.770;2023-06-19T08:23:32;9.23;;;6.72;;
21352;SDS011;10834;52.268;6.770;2023-06-19T08:26:18;8.27;;;6.32;;
21352;SDS011;10834;52.268;6.770;2023-06-19T08:29:04;7.07;;;6.40;;
21352;SDS011;10834;52.268;6.770;2023-06-19T08:31:50;6.95;;;6.32;;
21352;SDS011;10834;52.268;6.770;2023-06-19T08:34:36;6.47;;;5.88;;
21352;SDS011;10834;52.268;6.770;2023-06-19T08:37:23;7.00;;;6.22;;
21352;SDS011;10834;52.268;6.770;2023-06-19T08:40:09;6.32;;;5.72;;
21352;SDS011;10834;52.268;6.770;2023-06-19T08:42:57;6.43;;;5.53;;
21352;SDS011;10834;52.268;6.770;2023-06-19T08:45:43;7.05;;;6.40;;
21352;SDS011;10834;52.268;6.770;2023-06-19T08:48:48;7.35;;;6.65;;
21352;SDS011;10834;52.268;6.770;2023-06-19T08:51:34;6.72;;;5.95;;
21352;SDS011;10834;52.268;6.770;2023-06-19T08:54:20;6.78;;;6.07;;
21352;SDS011;10834;52.268;6.770;2023-06-19T08:57:06;9.65;;;5.75;;
21352;SDS011;10834;52.268;6.770;2023-06-19T08:59:52;6.32;;;5.63;;
21352;SDS011;10834;52.268;6.770;2023-06-19T09:02:44;11.27;;;6.57;;
21352;SDS011;10834;52.268;6.770;2023-06-19T09:05:31;6.63;;;5.65;;
21352;SDS011;10834;52.268;6.770;2023-06-19T09:08:20;6.90;;;4.95;;
21352;SDS011;10834;52.268;6.770;2023-06-19T09:11:07;5.50;;;4.65;;
21352;SDS011;10834;52.268;6.770;2023-06-19T09:13:57;6.70;;;6.15;;
21352;SDS011;10834;52.268;6.770;2023-06-19T09:16:43;5.93;;;5.00;;
21352;SDS011;10834;52.268;6.770;2023-06-19T09:19:30;7.28;;;5.10;;
21352;SDS011;10834;52.268;6.770;2023-06-19T09:22:17;6.47;;;5.25;;
21352;SDS011;10834;52.268;6.770;2023-06-19T09:25:06;7.05;;;6.43;;
21352;SDS011;10834;52.268;6.770;2023-06-19T09:27:55;8.75;;;6.53;;
21352;SDS011;10834;52.268;6.770;2023-06-19T09:30:51;8.23;;;6.93;;
21352;SDS011;10834;52.268;6.770;2023-06-19T09:33:38;9.15;;;6.50;;
21352;SDS011;10834;52.268;6.770;2023-06-19T09:36:25;7.90;;;7.20;;
21352;SDS011;10834;52.268;6.770;2023-06-19T09:39:12;7.90;;;7.05;;
21352;SDS011;10834;52.268;6.770;2023-06-19T09:42:01;10.43;;;7.80;;
21352;SDS011;10834;52.268;6.770;2023-06-19T09:44:49;8.93;;;8.13;;
21352;SDS011;10834;52.268;6.770;2023-06-19T09:47:38;7.78;;;7.00;;
21352;SDS011;10834;52.268;6.770;2023-06-19T09:50:37;8.00;;;7.22;;
21352;SDS011;10834;52.268;6.770;2023-06-19T09:53:24;10.15;;;7.15;;
21352;SDS011;10834;52.268;6.770;2023-06-19T09:56:12;7.13;;;5.97;;
21352;SDS011;10834;52.268;6.770;2023-06-19T09:58:59;7.68;;;6.95;;
21352;SDS011;10834;52.268;6.770;2023-06-19T10:01:45;7.65;;;6.97;;
21352;SDS011;10834;52.268;6.770;2023-06-19T10:04:41;9.93;;;7.30;;
21352;SDS011;10834;52.268;6.770;2023-06-19T10:07:34;6.07;;;5.47;;
21352;SDS011;10834;52.268;6.770;2023-06-19T10:10:24;7.30;;;6.25;;
21352;SDS011;10834;52.268;6.770;2023-06-19T10:13:13;6.72;;;6.20;;
21352;SDS011;10834;52.268;6.770;2023-06-19T10:16:00;8.80;;;7.03;;
21352;SDS011;10834;52.268;6.770;2023-06-19T10:18:47;7.93;;;7.10;;
21352;SDS011;10834;52.268;6.770;2023-06-19T10:21:43;8.77;;;8.02;;
21352;SDS011;10834;52.268;6.770;2023-06-19T10:24:30;8.27;;;7.47;;
21352;SDS011;10834;52.268;6.770;2023-06-19T10:27:20;7.90;;;7.20;;
21352;SDS011;10834;52.268;6.770;2023-06-19T10:30:16;8.95;;;8.07;;
21352;SDS011;10834;52.268;6.770;2023-06-19T10:33:03;10.98;;;9.70;;
21352;SDS011;10834;52.268;6.770;2023-06-19T10:35:49;9.20;;;8.32;;
21352;SDS011;10834;52.268;6.770;2023-06-19T10:38:35;9.50;;;8.48;;
21352;SDS011;10834;52.268;6.770;2023-06-19T10:41:24;8.48;;;7.78;;
21352;SDS011;10834;52.268;6.770;2023-06-19T10:44:11;8.77;;;8.00;;
21352;SDS011;10834;52.268;6.770;2023-06-19T10:47:00;10.52;;;9.52;;
21352;SDS011;10834;52.268;6.770;2023-06-19T10:49:47;11.77;;;10.30;;
21352;SDS011;10834;52.268;6.770;2023-06-19T10:52:34;9.43;;;8.30;;
21352;SDS011;10834;52.268;6.770;2023-06-19T10:55:20;10.25;;;8.80;;
21352;SDS011;10834;52.268;6.770;2023-06-19T10:58:07;10.60;;;9.55;;
21352;SDS011;10834;52.268;6.770;2023-06-19T11:00:53;11.18;;;9.40;;
21352;SDS011;10834;52.268;6.770;2023-06-19T11:03:39;9.48;;;8.57;;
21352;SDS011;10834;52.268;6.770;2023-06-19T11:06:25;9.50;;;8.48;;
21352;SDS011;10834;52.268;6.770;2023-06-19T11:09:12;8.65;;;7.75;;
21352;SDS011;10834;52.268;6.770;2023-06-19T11:11:58;9.25;;;8.35;;
21352;SDS011;10834;52.268;6.770;2023-06-19T11:14:47;8.40;;;7.57;;
21352;SDS011;10834;52.268;6.770;2023-06-19T11:17:34;8.70;;;7.90;;
21352;SDS011;10834;52.268;6.770;2023-06-19T11:20:20;8.15;;;7.43;;
21352;SDS011;10834;52.268;6.770;2023-06-19T11:23:06;8.13;;;7.30;;
21352;SDS011;10834;52.268;6.770;2023-06-19T11:25:52;9.38;;;7.93;;
21352;SDS011;10834;52.268;6.770;2023-06-19T11:28:38;8.50;;;7.75;;
21352;SDS011;10834;52.268;6.770;2023-06-19T11:31:25;8.13;;;7.32;;
21352;SDS011;10834;52.268;6.770;2023-06-19T11:34:12;7.72;;;7.10;;
21352;SDS011;10834;52.268;6.770;2023-06-19T11:36:59;8.02;;;7.00;;
21352;SDS011;10834;52.268;6.770;2023-06-19T11:39:45;8.05;;;7.25;;
21352;SDS011;10834;52.268;6.770;2023-06-19T11:42:33;8.60;;;7.72;;
21352;SDS011;10834;52.268;6.770;2023-06-19T11:45:45;7.93;;;7.25;;
21352;SDS011;10834;52.268;6.770;2023-06-19T11:48:38;7.63;;;6.97;;
21352;SDS011;10834;52.268;6.770;2023-06-19T11:51:24;7.57;;;6.88;;
21352;SDS011;10834;52.268;6.770;2023-06-19T11:54:11;7.78;;;7.03;;
21352;SDS011;10834;52.268;6.770;2023-06-19T11:57:00;8.68;;;7.88;;
21352;SDS011;10834;52.268;6.770;2023-06-19T11:59:46;7.53;;;6.68;;
21352;SDS011;10834;52.268;6.770;2023-06-19T12:02:32;8.23;;;7.40;;
21352;SDS011;10834;52.268;6.770;2023-06-19T12:05:18;10.27;;;8.20;;
21352;SDS011;10834;52.268;6.770;2023-06-19T12:08:04;7.70;;;7.00;;
21352;SDS011;10834;52.268;6.770;2023-06-19T12:10:52;9.98;;;7.95;;
21352;SDS011;10834;52.268;6.770;2023-06-19T12:13:38;9.45;;;8.50;;
21352;SDS011;10834;52.268;6.770;2023-06-19T12:16:27;9.23;;;8.02;;
21352;SDS011;10834;52.268;6.770;2023-06-19T12:19:14;8.00;;;7.30;;
21352;SDS011;10834;52.268;6.770;2023-06-19T12:22:00;9.07;;;7.53;;
21352;SDS011;10834;52.268;6.770;2023-06-19T12:24:46;8.25;;;7.40;;
21352;SDS011;10834;52.268;6.770;2023-06-19T12:27:32;8.70;;;7.97;;
21352;SDS011;10834;52.268;6.770;2023-06-19T12:30:18;9.85;;;8.90;;
21352;SDS011;10834;52.268;6.770;2023-06-19T12:33:04;8.38;;;7.53;;
21352;SDS011;10834;52.268;6.770;2023-06-19T12:35:51;8.57;;;6.60;;
21352;SDS011;10834;52.268;6.770;2023-06-19T12:38:37;8.05;;;7.28;;
21352;SDS011;10834;52.268;6.770;2023-06-19T12:41:24;9.57;;;8.55;;
21352;SDS011;10834;52.268;6.770;2023-06-19T12:44:10;9.65;;;8.65;;
21352;SDS011;10834;52.268;6.770;2023-06-19T12:46:57;7.95;;;7.13;;
21352;SDS011;10834;52.268;6.770;2023-06-19T12:49:45;8.55;;;7.78;;
21352;SDS011;10834;52.268;6.770;2023-06-19T12:52:31;9.75;;;8.85;;
21352;SDS011;10834;52.268;6.770;2023-06-19T12:55:17;8.43;;;7.63;;
21352;SDS011;10834;52.268;6.770;2023-06-19T12:58:03;9.25;;;7.28;;
21352;SDS011;10834;52.268;6.770;2023-06-19T13:00:49;8.93;;;7.22;;
21352;SDS011;10834;52.268;6.770;2023-06-19T13:03:35;9.98;;;8.85;;
21352;SDS011;10834;52.268;6.770;2023-06-19T13:06:21;8.70;;;7.90;;
21352;SDS011;10834;52.268;6.770;2023-06-19T13:09:07;8.35;;;7.50;;
21352;SDS011;10834;52.268;6.770;2023-06-19T13:11:54;7.90;;;7.13;;
21352;SDS011;10834;52.268;6.770;2023-06-19T13:14:40;8.40;;;7.30;;
21352;SDS011;10834;52.268;6.770;2023-06-19T13:17:27;8.82;;;7.85;;
21352;SDS011;10834;52.268;6.770;2023-06-19T13:20:13;7.80;;;7.03;;
21352;SDS011;10834;52.268;6.770;2023-06-19T13:23:00;8.32;;;7.47;;
21352;SDS011;10834;52.268;6.770;2023-06-19T13:25:46;8.90;;;7.78;;
21352;SDS011;10834;52.268;6.770;2023-06-19T13:28:33;8.35;;;7.50;;
21352;SDS011;10834;52.268;6.770;2023-06-19T13:31:19;9.93;;;7.38;;
21352;SDS011;10834;52.268;6.770;2023-06-19T13:34:05;7.78;;;7.03;;
21352;SDS011;10834;52.268;6.770;2023-06-19T13:36:51;8.60;;;7.70;;
21352;SDS011;10834;52.268;6.770;2023-06-19T13:39:37;10.60;;;7.88;;
21352;SDS011;10834;52.268;6.770;2023-06-19T13:42:25;12.20;;;7.50;;
21352;SDS011;10834;52.268;6.770;2023-06-19T13:45:12;9.88;;;7.13;;
21352;SDS011;10834;52.268;6.770;2023-06-19T13:47:58;8.40;;;7.10;;
21352;SDS011;10834;52.268;6.770;2023-06-19T13:50:45;8.30;;;6.65;;
21352;SDS011;10834;52.268;6.770;2023-06-19T13:53:32;10.00;;;7.45;;
21352;SDS011;10834;52.268;6.770;2023-06-19T13:56:18;8.25;;;7.40;;
21352;SDS011;10834;52.268;6.770;2023-06-19T13:59:04;8.05;;;7.25;;
21352;SDS011;10834;52.268;6.770;2023-06-19T14:01:51;7.20;;;6.53;;
21352;SDS011;10834;52.268;6.770;2023-06-19T14:04:37;8.23;;;7.28;;
21352;SDS011;10834;52.268;6.770;2023-06-19T14:07:23;9.07;;;7.13;;
21352;SDS011;10834;52.268;6.770;2023-06-19T14:10:09;8.05;;;7.22;;
21352;SDS011;10834;52.268;6.770;2023-06-19T14:12:56;7.53;;;6.82;;
21352;SDS011;10834;52.268;6.770;2023-06-19T14:15:42;8.23;;;7.40;;
21352;SDS011;10834;52.268;6.770;2023-06-19T14:18:28;6.60;;;6.10;;
21352;SDS011;10834;52.268;6.770;2023-06-19T14:21:14;6.38;;;5.78;;
21352;SDS011;10834;52.268;6.770;2023-06-19T14:24:00;7.85;;;6.68;;
21352;SDS011;10834;52.268;6.770;2023-06-19T14:26:46;7.25;;;6.53;;
21352;SDS011;10834;52.268;6.770;2023-06-19T14:29:32;7.10;;;6.40;;
21352;SDS011;10834;52.268;6.770;2023-06-19T14:32:19;7.47;;;6.82;;
21352;SDS011;10834;52.268;6.770;2023-06-19T14:35:05;7.00;;;6.30;;
21352;SDS011;10834;52.268;6.770;2023-06-19T14:37:51;10.25;;;6.35;;
21352;SDS011;10834;52.268;6.770;2023-06-19T14:40:37;7.50;;;6.18;;
21352;SDS011;10834;52.268;6.770;2023-06-19T14:43:24;8.48;;;6.20;;
21352;SDS011;10834;52.268;6.770;2023-06-19T14:46:10;7.10;;;6.07;;
21352;SDS011;10834;52.268;6.770;2023-06-19T14:48:56;5.85;;;5.45;;
21352;SDS011;10834;52.268;6.770;2023-06-19T14:51:44;6.47;;;5.50;;
21352;SDS011;10834;52.268;6.770;2023-06-19T14:54:30;6.05;;;5.53;;
21352;SDS011;10834;52.268;6.770;2023-06-19T14:57:16;8.00;;;6.13;;
21352;SDS011;10834;52.268;6.770;2023-06-19T15:00:02;6.85;;;6.18;;
21352;SDS011;10834;52.268;6.770;2023-06-19T15:02:51;7.35;;;5.18;;
21352;SDS011;10834;52.268;6.770;2023-06-19T15:05:37;7.53;;;5.63;;
21352;SDS011;10834;52.268;6.770;2023-06-19T15:08:23;8.63;;;5.32;;
21352;SDS011;10834;52.268;6.770;2023-06-19T15:11:09;6.47;;;5.53;;
21352;SDS011;10834;52.268;6.770;2023-06-19T15:13:55;6.63;;;6.03;;
21352;SDS011;10834;52.268;6.770;2023-06-19T15:16:41;6.18;;;5.68;;
21352;SDS011;10834;52.268;6.770;2023-06-19T15:19:27;6.88;;;6.13;;
21352;SDS011;10834;52.268;6.770;2023-06-19T15:22:13;5.55;;;5.05;;
21352;SDS011;10834;52.268;6.770;2023-06-19T15:24:59;5.75;;;5.20;;
21352;SDS011;10834;52.268;6.770;2023-06-19T15:27:45;6.22;;;5.63;;
21352;SDS011;10834;52.268;6.770;2023-06-19T15:30:31;8.32;;;5.82;;
21352;SDS011;10834;52.268;6.770;2023-06-19T15:33:17;8.25;;;5.65;;
21352;SDS011;10834;52.268;6.770;2023-06-19T15:36:03;7.32;;;6.00;;
21352;SDS011;10834;52.268;6.770;2023-06-19T15:38:49;8.38;;;5.32;;
21352;SDS011;10834;52.268;6.770;2023-06-19T15:41:36;5.90;;;5.30;;
21352;SDS011;10834;52.268;6.770;2023-06-19T15:44:22;7.28;;;6.10;;
21352;SDS011;10834;52.268;6.770;2023-06-19T15:47:08;6.90;;;5.57;;
21352;SDS011;10834;52.268;6.770;2023-06-19T15:49:54;7.10;;;5.85;;
21352;SDS011;10834;52.268;6.770;2023-06-19T15:52:40;5.38;;;4.85;;
21352;SDS011;10834;52.268;6.770;2023-06-19T15:55:26;6.38;;;5.75;;
21352;SDS011;10834;52.268;6.770;2023-06-19T15:58:13;6.65;;;5.32;;
21352;SDS011;10834;52.268;6.770;2023-06-19T16:00:59;6.35;;;5.65;;
21352;SDS011;10834;52.268;6.770;2023-06-19T16:03:45;6.43;;;5.85;;
21352;SDS011;10834;52.268;6.770;2023-06-19T16:06:31;5.60;;;5.10;;
21352;SDS011;10834;52.268;6.770;2023-06-19T16:09:18;6.15;;;5.55;;
21352;SDS011;10834;52.268;6.770;2023-06-19T16:12:04;7.38;;;6.50;;
21352;SDS011;10834;52.268;6.770;2023-06-19T16:14:50;8.40;;;6.35;;
21352;SDS011;10834;52.268;6.770;2023-06-19T16:17:36;6.20;;;5.60;;
21352;SDS011;10834;52.268;6.770;2023-06-19T16:20:23;6.55;;;5.80;;
21352;SDS011;10834;52.268;6.770;2023-06-19T16:23:08;7.00;;;5.85;;
21352;SDS011;10834;52.268;6.770;2023-06-19T16:25:55;6.55;;;6.03;;
21352;SDS011;10834;52.268;6.770;2023-06-19T16:28:41;5.93;;;5.32;;
21352;SDS011;10834;52.268;6.770;2023-06-19T16:31:27;10.07;;;6.90;;
21352;SDS011;10834;52.268;6.770;2023-06-19T16:34:13;6.20;;;5.60;;
21352;SDS011;10834;52.268;6.770;2023-06-19T16:36:59;6.82;;;6.22;;
21352;SDS011;10834;52.268;6.770;2023-06-19T16:39:45;8.00;;;6.78;;
21352;SDS011;10834;52.268;6.770;2023-06-19T16:42:31;10.65;;;6.15;;
21352;SDS011;10834;52.268;6.770;2023-06-19T16:45:17;6.68;;;5.60;;